Time;durP1;ratioP1;P1;durP2;ratioP2;P2;SDS_P1;SDS_P2;PMS_P1;PMS_P2;Temp;Humidity;BMP_temperature;BMP_pressure;BME280_temperature;BME280_humidity;BME280_pressure;Samples;Min_cycle;Max_cycle;Signal;HPM_P1;HPM_P2
2023/01/24 06:00:08;;;;;;;;;45.25;36.75;;;;;6.94;60.14;8334.09;6120982;22;46377;31
2023/01/24 06:02:34;;;;;;;;;34.00;31.00;;;;;6.76;60.16;8330.81;4955979;23;46169;-87
2023/01/24 06:04:59;;;;;;;;;38.00;34.00;;;;;6.92;60.10;8002.50;4952573;28;45509;-87
2023/01/24 06:07:24;;;;;;;;;43.50;36.75;;;;;6.52;60.15;7995.31;4937923;28;45648;-87
2023/01/24 06:09:50;;;;;;;;;36.50;34.25;;;;;6.73;60.02;7999.06;4956598;28;45618;-87
2023/01/24 06:12:15;;;;;;;;;43.25;36.75;;;;;6.97;60.37;8003.31;4958703;28;45507;-87
2023/01/24 06:14:40;;;;;;;;;42.75;36.00;;;;;6.69;60.11;7667.19;4950736;28;48141;-86
2023/01/24 06:17:06;;;;;;;;;38.00;35.00;;;;;6.18;60.31;7989.34;4945741;28;45365;-88
2023/01/24 06:19:31;;;;;;;;;43.00;36.50;;;;;6.59;60.01;7996.50;4959150;28;46177;-88
2023/01/24 06:22:13;;;;;;;;;39.50;34.25;;;;;6.88;60.43;7670.44;4960213;28;45328;-89
2023/01/24 06:24:38;;;;;;;;;33.50;32.00;;;;;6.11;59.88;7657.31;4948651;28;48505;-89
2023/01/24 06:27:04;;;;;;;;;39.75;34.25;;;;;7.01;59.82;8003.97;4959056;28;45432;-89
2023/01/24 06:29:30;;;;;;;;;38.50;28.00;;;;;6.98;60.25;8003.50;4941232;28;45452;-89
2023/01/24 06:32:10;;;;;;;;;32.50;25.50;;;;;6.96;59.88;8334.47;4959197;28;45467;-89
2023/01/24 06:35:04;;;;;;;;;44.75;34.25;;;;;6.94;59.76;8334.19;4951515;28;45664;-89
2023/01/24 06:37:49;;;;;;;;;37.25;31.75;;;;;6.85;59.76;8001.13;4956307;28;46207;-89
2023/01/24 06:40:20;;;;;;;;;35.75;29.00;;;;;6.95;60.40;8003.06;4952684;28;45548;-89
2023/01/24 06:42:46;;;;;;;;;42.25;33.50;;;;;6.96;59.96;8003.13;4956768;28;45455;-88
2023/01/24 06:45:12;;;;;;;;;39.00;31.25;;;;;6.57;60.31;7996.16;4957458;28;45559;-89
2023/01/24 06:47:39;;;;;;;;;37.75;34.00;;;;;6.66;60.21;7666.66;4955707;28;45396;-90
2023/01/24 06:50:10;;;;;;;;;40.25;32.00;;;;;6.98;59.95;7672.19;4955985;28;45528;-89
2023/01/24 06:52:35;;;;;;;;;39.50;35.00;;;;;6.70;60.48;7667.44;4959049;28;45509;-90
2023/01/24 06:55:01;;;;;;;;;36.25;33.25;;;;;6.88;60.35;7670.44;4941238;28;47019;-90
2023/01/24 06:57:26;;;;;;;;;41.25;34.75;;;;;6.73;60.37;7667.88;4959192;28;45401;-90
2023/01/24 06:59:51;;;;;;;;;38.50;34.00;;;;;6.48;60.31;7663.66;4958961;28;45775;-90
2023/01/24 07:02:17;;;;;;;;;42.50;36.75;;;;;6.34;60.24;7330.34;4958868;28;45366;-89
2023/01/24 07:04:42;;;;;;;;;46.00;35.75;;;;;6.34;60.59;7661.28;4941372;28;46982;-89
2023/01/24 07:07:07;;;;;;;;;46.00;35.25;;;;;6.79;60.45;7337.78;4941365;28;46240;-88
2023/01/24 07:09:33;;;;;;;;;40.75;35.00;;;;;6.69;60.15;7336.16;4942135;28;46041;-89
2023/01/24 07:11:58;;;;;;;;;48.25;39.00;;;;;6.80;60.16;7006.72;4959409;28;45556;-89
2023/01/24 07:14:24;;;;;;;;;44.50;34.50;;;;;7.05;60.26;7010.75;4954892;28;46168;-89
2023/01/24 07:16:50;;;;;;;;;46.25;36.50;;;;;6.66;60.59;7004.47;4957673;28;45365;-89
2023/01/24 07:19:24;;;;;;;;;50.25;39.00;;;;;7.04;60.28;7010.66;4956663;28;46631;-89
2023/01/24 07:21:52;;;;;;;;;49.50;35.50;;;;;6.56;60.53;6671.91;4941760;28;45403;-89
2023/01/24 07:24:20;;;;;;;;;45.75;37.00;;;;;7.08;60.76;6348.81;4949177;28;47252;-90
2023/01/24 07:26:48;;;;;;;;;46.75;39.00;;;;;6.90;60.57;6346.03;4963489;28;45529;-90
2023/01/24 07:29:13;;;;;;;;;49.75;38.25;;;;;7.12;60.81;6018.19;4944289;28;45574;-91
2023/01/24 07:31:39;;;;;;;;;45.00;38.00;;;;;6.46;60.59;6339.41;4958773;28;45575;-90
2023/01/24 07:34:04;;;;;;;;;48.00;36.75;;;;;6.68;60.26;6342.81;4935580;28;47129;-90
2023/01/24 07:36:30;;;;;;;;;47.50;36.25;;;;;7.15;60.89;6018.66;4958458;28;45418;-90
2023/01/24 07:38:56;;;;;;;;;53.75;43.00;;;;;7.15;60.34;6018.66;4957043;28;45834;-90
2023/01/24 07:41:22;;;;;;;;;48.25;37.25;;;;;7.16;60.55;6018.78;4941068;28;45515;-90
2023/01/24 07:43:47;;;;;;;;;50.50;37.75;;;;;6.89;60.56;6345.97;4942616;28;47229;-88
2023/01/24 07:46:13;;;;;;;;;47.75;37.00;;;;;6.98;60.73;6016.13;4957527;28;45490;-89
2023/01/24 07:48:39;;;;;;;;;46.25;37.00;;;;;6.66;60.82;5680.47;4937501;28;45565;-88
2023/01/24 07:51:05;;;;;;;;;50.50;37.00;;;;;7.20;60.29;5688.06;4944182;28;45548;-89
2023/01/24 07:53:30;;;;;;;;;39.50;36.00;;;;;6.93;60.10;6015.44;4953155;28;47323;-89
2023/01/24 07:55:59;;;;;;;;;42.00;34.25;;;;;6.94;60.03;6015.59;4938140;28;45489;-89
2023/01/24 07:58:25;;;;;;;;;48.75;36.25;;;;;6.93;60.22;6015.44;4940732;28;45562;-90
2023/01/24 11:02:23;;;;;;;;;39.75;32.25;;;;;7.79;60.72;3044.88;5209384;23;45649;-89
2023/01/24 11:04:59;;;;;;;;;46.25;34.25;;;;;7.79;60.46;3044.81;4961817;28;45463;-90
2023/01/24 11:07:32;;;;;;;;;45.75;35.50;;;;;7.80;60.79;2713.59;4961994;28;45383;-90
2023/01/24 11:10:15;;;;;;;;;49.00;35.50;;;;;7.77;60.61;2713.31;4978884;28;46301;-89
2023/01/24 11:12:53;;;;;;;;;41.00;34.75;;;;;7.45;60.61;2710.41;4961497;28;45416;-89
2023/01/24 11:15:23;;;;;;;;;36.50;31.25;;;;;7.88;60.41;2383.00;4968493;28;45482;-89
2023/01/24 11:18:11;;;;;;;;;40.00;33.25;;;;;7.38;60.42;2709.75;4949199;28;45447;-90
2023/01/24 11:20:36;;;;;;;;;32.25;26.25;;;;;7.67;60.55;2381.16;4949954;28;47416;-89
2023/01/24 11:23:16;;;;;;;;;33.25;29.00;;;;;7.75;60.73;2381.88;4961327;28;45466;-90
2023/01/24 11:25:52;;;;;;;;;38.75;33.00;;;;;7.51;60.43;2379.78;4979109;28;45418;-90
2023/01/24 11:28:29;;;;;;;;;40.50;35.50;;;;;7.69;60.43;2381.38;4961628;28;45459;-90
2023/01/24 11:30:58;;;;;;;;;37.75;33.50;;;;;7.05;60.50;2044.94;4952111;28;48524;-89
2023/01/24 11:34:01;;;;;;;;;34.00;30.75;;;;;7.95;60.70;2383.66;4965171;28;45256;-90
2023/01/24 11:36:29;;;;;;;;;43.00;34.00;;;;;7.97;60.42;2383.78;4961197;28;45465;-90
2023/01/24 11:39:03;;;;;;;;;32.25;30.00;;;;;7.14;60.19;2376.59;4979156;28;45348;-90
2023/01/24 11:41:42;;;;;;;;;36.75;31.75;;;;;7.30;60.40;2047.03;4961016;28;47449;-89
2023/01/24 11:44:20;;;;;;;;;39.00;33.50;;;;;7.98;60.74;2052.53;4961171;28;45417;-89
2023/01/24 11:46:55;;;;;;;;;38.25;30.00;;;;;7.50;60.98;2048.66;4960758;28;45541;-89
2023/01/24 11:49:52;;;;;;;;;41.00;34.75;;;;;7.19;60.41;2046.16;4961681;28;45609;-89
2023/01/24 11:52:47;;;;;;;;;40.50;33.50;;;;;7.98;60.77;2052.56;4883403;29;47543;-89
2023/01/24 11:55:22;;;;;;;;;34.75;31.50;;;;;8.00;60.85;2052.72;4883232;29;45505;-89
2023/01/24 11:58:15;;;;;;;;;33.00;30.00;;;;;8.02;60.73;1721.56;4899028;29;45447;-90
2023/01/24 12:01:05;;;;;;;;;38.75;30.75;;;;;7.76;60.60;1719.53;4885703;28;45599;-90
2023/01/24 12:04:00;;;;;;;;;36.00;32.33;;;;;7.86;60.81;1720.25;4899082;29;48463;-89
2023/01/24 12:06:36;;;;;;;;;37.33;29.33;;;;;7.63;60.54;1718.50;4898235;28;46394;-91
2023/01/24 12:09:23;;;;;;;;;40.00;35.00;;;;;7.76;60.60;1388.38;4881775;29;45521;-91
2023/01/24 12:12:34;;;;;;;;;32.75;28.75;;;;;7.91;60.47;1389.41;4878409;29;45575;-88
2023/01/24 12:15:11;;;;;;;;;30.25;26.50;;;;;8.12;60.34;1390.91;4844151;28;48288;-88
2023/01/24 12:18:19;;;;;;;;;40.50;33.25;;;;;7.69;60.66;1387.84;4858430;29;45659;-90
2023/01/24 12:20:53;;;;;;;;;28.00;26.00;;;;;8.16;60.70;1391.19;4804742;29;45551;-90
2023/01/24 12:23:37;;;;;;;;;37.25;31.50;;;;;8.14;60.71;1391.03;4804936;29;45620;-90
2023/01/24 12:26:11;;;;;;;;;27.25;26.50;;;;;7.95;60.72;1058.44;4793412;29;47123;-91
2023/01/24 12:28:57;;;;;;;;;36.50;32.75;;;;;7.98;60.63;1058.66;4812295;29;46060;-90
2023/01/24 12:31:32;;;;;;;;;31.50;30.00;;;;;8.07;60.51;1390.53;4839735;29;45551;-91
2023/01/24 12:34:42;;;;;;;;;30.25;27.50;;;;;8.18;60.92;1059.97;4839304;29;45358;-90
2023/01/24 12:37:25;;;;;;;;;34.00;29.33;;;;;7.72;60.84;1056.97;4806661;29;47222;-90
2023/01/24 12:39:59;;;;;;;;;40.50;35.50;;;;;7.96;60.71;727.28;4819552;29;45558;-90
2023/01/24 12:42:36;;;;;;;;;36.00;33.00;;;;;8.21;60.60;1060.16;4823049;29;45552;-91
2023/01/24 12:45:11;;;;;;;;;35.00;30.25;;;;;8.22;60.90;1060.25;4823105;29;45409;-91
2023/01/24 12:47:56;;;;;;;;;33.00;30.75;;;;;7.96;60.68;1058.50;4819213;29;45596;-91
2023/01/24 12:50:49;;;;;;;;;33.75;30.00;;;;;7.97;60.54;1058.56;4806077;29;45493;-90
2023/01/24 12:53:26;;;;;;;;;48.50;31.25;;;;;8.24;60.47;729.00;4841422;28;45384;-90
2023/01/24 12:56:10;;;;;;;;;42.25;30.75;;;;;7.85;60.66;1057.75;4861369;29;45567;-90
2023/01/24 12:58:39;;;;;;;;;37.25;32.00;;;;;7.95;60.79;727.22;4872812;29;46478;-90
2023/01/24 16:34:58;;;;;;;;;38.67;31.67;;;;;7.01;61.68;-601.03;5591033;23;46388;-87
2023/01/24 16:37:39;;;;;;;;;38.00;33.00;;;;;6.55;61.54;-602.78;4973526;28;45412;-89
2023/01/24 16:43:03;;;;;;;;;43.00;35.50;;;;;7.97;61.47;-597.31;4976823;23;45458;-87
2023/01/24 16:45:29;;;;;;;;;37.50;33.25;;;;;8.00;61.88;-597.22;4973174;28;45579;-94
2023/01/24 16:47:58;;;;;;;;;10.00;5.50;;;;;7.97;61.66;-597.31;4963355;28;45539;-93
2023/01/24 16:50:23;;;;;;;;;41.50;34.75;;;;;8.04;61.72;-597.03;4968542;28;45517;-90
2023/01/24 16:52:49;;;;;;;;;33.75;31.25;;;;;7.97;62.15;-597.31;4968725;28;45539;-91
2023/01/24 16:55:14;;;;;;;;;41.50;35.50;;;;;8.08;61.82;-596.91;4974187;28;46003;-90
2023/01/24 16:57:40;;;;;;;;;33.50;30.50;;;;;7.73;61.84;-929.22;4972064;28;45524;-88
2023/01/24 17:00:12;;;;;;;;;34.50;33.00;;;;;8.17;61.78;-596.53;4967144;28;46002;-91
2023/01/24 17:02:44;;;;;;;;;29.00;27.75;;;;;8.08;61.82;-596.91;4953040;28;45720;-90
2023/01/24 17:05:10;;;;;;;;;30.00;25.75;;;;;8.14;61.48;-596.66;4974578;28;45417;-90
2023/01/24 17:07:35;;;;;;;;;35.00;28.50;;;;;7.72;61.64;-598.31;4958252;28;45412;-89
2023/01/24 17:10:03;;;;;;;;;32.75;27.50;;;;;7.60;61.64;-598.72;4954317;28;47229;-89
2023/01/24 17:12:29;;;;;;;;;32.75;29.25;;;;;7.91;61.43;-597.53;4957394;28;45765;-89
2023/01/24 17:14:55;;;;;;;;;35.75;26.00;;;;;7.73;61.49;-598.25;4970844;28;45522;-89
2023/01/24 17:17:20;;;;;;;;;34.00;28.00;;;;;7.77;62.03;-598.09;4974757;28;45569;-89
2023/01/24 17:19:46;;;;;;;;;37.67;32.00;;;;;8.08;61.73;-596.91;4954339;28;47604;-90
2023/01/24 17:22:11;;;;;;;;;35.75;33.00;;;;;7.89;61.67;-597.63;4974272;28;45443;-89
2023/01/24 17:24:37;;;;;;;;;34.33;27.33;;;;;7.51;61.49;-599.09;4956971;28;45411;-89
2023/01/24 17:27:02;;;;;;;;;34.00;30.33;;;;;7.75;61.22;-598.16;4957963;28;45580;-90
2023/01/24 17:29:28;;;;;;;;;29.67;26.00;;;;;7.67;61.63;-598.50;4974097;28;45466;-88
2023/01/24 17:31:54;;;;;;;;;29.00;27.00;;;;;7.91;61.58;-597.53;4965861;28;45562;-90
2023/01/24 17:34:20;;;;;;;;;40.25;31.00;;;;;8.17;61.69;-596.53;4960909;28;45413;-89
2023/01/24 17:36:45;;;;;;;;;40.67;33.33;;;;;8.17;62.03;-596.56;4968903;28;45455;-89
2023/01/24 17:39:11;;;;;;;;;40.67;32.67;;;;;7.55;61.84;-598.94;4954562;28;47976;-89
2023/01/24 17:41:40;;;;;;;;;31.00;25.33;;;;;7.22;61.56;-600.25;4972256;28;45862;-89
2023/01/24 17:44:05;;;;;;;;;35.00;32.25;;;;;8.21;61.90;-596.38;4977682;28;45518;-88
2023/01/24 17:46:31;;;;;;;;;34.33;32.67;;;;;7.82;61.89;-928.91;4978942;28;45548;-90
2023/01/24 17:48:57;;;;;;;;;25.00;25.00;;;;;8.12;61.63;-927.91;4979440;28;46050;-92
2023/01/24 17:51:23;;;;;;;;;34.00;29.67;;;;;7.35;61.68;-599.72;4948278;28;45420;-91
2023/01/24 17:53:48;;;;;;;;;31.00;25.00;;;;;8.15;61.44;-596.63;4961400;28;45446;-88
2023/01/24 17:56:15;;;;;;;;;34.00;32.50;;;;;8.21;61.93;-596.38;4952476;28;45455;-89
2023/01/24 17:58:41;;;;;;;;;35.33;32.33;;;;;7.43;61.48;-930.22;4972860;28;45515;-89
2023/01/24 18:01:07;;;;;;;;;38.25;32.50;;;;;7.73;61.61;-598.25;4970439;28;45460;-89
2023/01/24 18:03:32;;;;;;;;;44.50;36.00;;;;;7.64;61.67;-929.50;4977853;28;45611;-88
2023/01/24 18:06:01;;;;;;;;;41.75;32.25;;;;;7.95;61.40;-928.47;4956187;28;45353;-88
2023/01/24 18:08:27;;;;;;;;;38.67;33.00;;;;;8.23;61.94;-927.53;4974346;28;45497;-88
2023/01/24 18:10:53;;;;;;;;;36.00;32.33;;;;;8.00;61.50;-928.28;4975255;28;46595;-89
2023/01/24 18:13:19;;;;;;;;;35.00;32.75;;;;;8.12;61.78;-927.91;4975744;28;45499;-88
2023/01/24 18:15:44;;;;;;;;;40.50;30.50;;;;;8.03;61.88;-928.19;4968366;28;45435;-88
2023/01/24 18:18:10;;;;;;;;;42.50;34.75;;;;;8.09;61.43;-596.84;4974707;28;45775;-89
2023/01/24 18:20:39;;;;;;;;;41.75;34.25;;;;;7.96;61.44;-928.44;4968262;28;45641;-88
2023/01/24 18:23:05;;;;;;;;;38.75;34.00;;;;;8.22;61.29;-927.56;4960202;28;45580;-90
2023/01/24 18:25:31;;;;;;;;;34.33;30.33;;;;;8.06;61.71;-928.09;4949914;28;45575;-89
2023/01/24 18:27:56;;;;;;;;;33.00;29.33;;;;;7.88;61.45;-597.66;4959845;28;47955;-88
2023/01/24 18:30:22;;;;;;;;;32.00;28.25;;;;;7.92;61.48;-597.53;4971350;28;45539;-87
2023/01/24 18:32:47;;;;;;;;;35.33;30.33;;;;;7.81;61.60;-928.94;4978170;28;45442;-93
2023/01/24 18:35:13;;;;;;;;;34.00;28.67;;;;;8.00;61.68;-928.31;4959801;28;45527;-95
2023/01/24 18:37:38;;;;;;;;;42.00;33.50;;;;;7.81;61.88;-928.94;4980656;28;45720;-95
2023/01/24 18:40:05;;;;;;;;;35.33;32.33;;;;;7.39;61.65;-930.34;4981596;28;45465;-96
2023/01/24 18:42:31;;;;;;;;;43.00;34.00;;;;;8.03;61.39;-928.22;4965298;28;46046;-90
2023/01/24 18:44:57;;;;;;;;;34.67;32.00;;;;;8.23;61.91;-596.31;4956851;28;46053;-90
2023/01/24 18:47:25;;;;;;;;;29.67;23.00;;;;;7.80;61.86;-928.97;4953503;28;47466;-91
2023/01/24 18:50:00;;;;;;;;;;;;;;;;;;;;;
2023/01/24 18:52:26;;;;;;;;;39.67;30.67;;;;;6.25;61.53;-934.09;4970713;28;67703;-90
2023/01/24 18:54:52;;;;;;;;;36.33;29.67;;;;;6.87;61.48;-932.06;4957332;28;45499;-89
2023/01/24 18:57:17;;;;;;;;;23.67;21.33;;;;;7.69;61.77;-929.34;4956642;28;47797;-88
2023/01/24 18:59:42;;;;;;;;;32.75;27.00;;;;;7.30;61.39;-930.66;4977179;28;45381;-89
2023/01/24 19:02:09;;;;;;;;;27.50;22.75;;;;;8.27;61.79;-927.41;4976008;28;45826;-90
2023/01/24 19:04:34;;;;;;;;;31.75;24.00;;;;;8.27;61.58;-927.41;4957245;28;45481;-90
2023/01/24 19:07:01;;;;;;;;;31.25;29.75;;;;;7.49;61.65;-930.03;4965695;28;46347;-90
2023/01/24 19:09:28;;;;;;;;;32.50;29.00;;;;;8.29;61.83;-927.34;4971479;28;45408;-90
2023/01/24 19:11:53;;;;;;;;;32.75;32.75;;;;;7.90;61.44;-1259.69;4955600;28;45595;-90
2023/01/24 19:14:19;;;;;;;;;36.00;31.75;;;;;8.19;61.40;-927.66;4967578;28;45518;-88
2023/01/24 19:16:45;;;;;;;;;31.25;29.00;;;;;7.91;61.38;-928.59;4973937;28;45487;-89
2023/01/24 19:19:13;;;;;;;;;33.50;31.00;;;;;7.60;61.75;-929.66;4971307;28;46683;-90
2023/01/24 19:21:39;;;;;;;;;42.50;30.75;;;;;7.59;61.48;-929.66;4966469;28;46833;-88
2023/01/24 19:24:05;;;;;;;;;42.25;33.25;;;;;7.58;61.85;-929.72;4970910;28;45437;-88
2023/01/24 19:26:31;;;;;;;;;37.50;33.00;;;;;7.91;61.63;-928.59;4966358;28;46525;-88
2023/01/24 19:28:57;;;;;;;;;39.50;32.00;;;;;7.88;61.47;-1259.72;4969917;28;45503;-88
2023/01/24 19:31:23;;;;;;;;;39.00;33.75;;;;;7.52;61.42;-929.91;4970181;28;46244;-89
2023/01/24 19:33:50;;;;;;;;;35.75;31.00;;;;;8.17;61.70;-1258.91;4954373;28;45513;-89
2023/01/24 19:36:16;;;;;;;;;37.25;33.00;;;;;8.29;61.88;-927.34;4951008;28;48614;-89
2023/01/24 19:38:43;;;;;;;;;34.75;32.00;;;;;8.27;61.51;-927.41;4971973;28;45530;-90
2023/01/24 19:41:09;;;;;;;;;41.25;33.75;;;;;8.28;61.39;-927.38;4970171;28;45581;-88
2023/01/24 19:43:36;;;;;;;;;35.50;31.75;;;;;7.80;61.71;-928.97;4951719;28;45722;-88
2023/01/24 19:46:02;;;;;;;;;36.00;32.25;;;;;8.30;61.75;-1258.56;4970652;28;45491;-88
2023/01/24 19:48:28;;;;;;;;;34.67;31.00;;;;;7.37;61.60;-930.41;4952656;28;46948;-87
2023/01/24 19:50:59;;;;;;;;;41.00;32.50;;;;;8.15;61.88;-1258.97;4963230;28;45915;-88
2023/01/24 19:53:25;;;;;;;;;37.50;32.00;;;;;7.95;61.76;-928.50;4954740;28;45644;-90
2023/01/24 19:55:50;;;;;;;;;38.75;31.50;;;;;7.27;61.82;-1261.44;4969547;28;45531;-90
2023/01/24 19:58:15;;;;;;;;;35.75;26.75;;;;;7.54;61.75;-1260.69;4977028;28;45456;-90
2023/01/24 20:00:42;;;;;;;;;29.25;27.50;;;;;7.88;61.82;-928.72;4959190;28;45521;-91
2023/01/24 20:03:08;;;;;;;;;34.00;28.50;;;;;8.14;61.24;-1259.00;4973943;28;45509;-91
2023/01/24 20:05:36;;;;;;;;;35.50;33.00;;;;;8.00;61.71;-1259.41;4955783;28;47571;-89
2023/01/24 20:08:02;;;;;;;;;40.25;33.50;;;;;7.73;61.85;-1591.06;4973333;28;45502;-90
2023/01/24 20:10:27;;;;;;;;;37.00;33.00;;;;;7.48;61.89;-1260.88;4955429;28;45787;-91
2023/01/24 20:12:53;;;;;;;;;42.25;32.75;;;;;8.03;61.82;-1259.31;4972683;28;45444;-91
2023/01/24 20:15:21;;;;;;;;;36.50;32.50;;;;;7.38;61.57;-1261.13;4972084;28;46776;-90
2023/01/24 20:17:47;;;;;;;;;41.50;35.25;;;;;7.54;61.69;-1260.69;4971401;28;45504;-90
2023/01/24 20:20:12;;;;;;;;;32.75;31.25;;;;;8.12;61.91;-1590.19;4945876;28;46830;-89
2023/01/24 20:22:38;;;;;;;;;35.50;33.25;;;;;8.36;61.67;-1589.63;4975457;28;45521;-95
2023/01/24 20:25:03;;;;;;;;;38.00;29.00;;;;;8.37;61.65;-1589.59;4955283;28;47273;-89
2023/01/24 20:27:29;;;;;;;;;38.25;33.25;;;;;8.34;61.83;-1589.66;4971808;28;45526;-89
2023/01/24 20:29:54;;;;;;;;;37.50;32.00;;;;;8.30;61.88;-1589.78;4974085;28;45424;-89
2023/01/24 20:32:20;;;;;;;;;36.25;32.50;;;;;7.64;61.68;-1591.28;4977172;28;45515;-87
2023/01/24 20:34:45;;;;;;;;;33.00;31.50;;;;;8.37;61.50;-1258.34;4971468;28;48147;-87
2023/01/24 20:37:13;;;;;;;;;37.25;34.00;;;;;8.36;62.04;-1589.63;4970963;28;45704;-89
2023/01/24 20:39:40;;;;;;;;;37.50;30.00;;;;;7.95;61.85;-1590.56;4954234;28;45544;-90
2023/01/24 20:42:05;;;;;;;;;35.00;31.33;;;;;7.95;61.57;-1590.56;4958301;28;45326;-86
2023/01/24 20:44:31;;;;;;;;;28.67;27.33;;;;;7.51;61.45;-1260.75;4970518;28;45653;-86
2023/01/24 20:46:56;;;;;;;;;26.75;26.25;;;;;7.91;61.29;-1259.66;4969860;28;45534;-87
2023/01/24 20:49:23;;;;;;;;;34.25;30.00;;;;;8.35;61.46;-1258.41;4971165;28;45513;-86
2023/01/24 20:51:48;;;;;;;;;36.00;27.33;;;;;8.35;61.86;-1258.41;4967476;28;45658;-86
2023/01/24 20:54:13;;;;;;;;;38.00;29.67;;;;;7.65;61.74;-1260.38;4952280;28;46336;-86
2023/01/24 20:56:39;;;;;;;;;34.33;30.67;;;;;8.15;61.44;-1258.97;4970769;28;45480;-86
2023/01/24 20:59:05;;;;;;;;;40.00;31.00;;;;;8.32;61.97;-1258.50;4972234;28;45547;-87
2023/01/24 21:12:38;;;;;;;;;30.33;26.33;;;;;6.94;61.61;-1262.34;4978076;23;57865;-89
2023/01/24 21:15:04;;;;;;;;;32.33;25.33;;;;;8.29;61.76;-1258.56;4969120;28;46532;-89
2023/01/24 21:17:30;;;;;;;;;37.67;31.00;;;;;8.35;61.54;-1258.41;4955739;28;45575;-89
2023/01/24 21:19:58;;;;;;;;;34.50;29.75;;;;;8.05;61.29;-1259.25;4965977;28;45600;-91
2023/01/24 21:22:23;;;;;;;;;37.50;31.75;;;;;7.77;61.61;-1260.03;4967052;28;45512;-88
2023/01/24 21:24:49;;;;;;;;;29.33;23.33;;;;;7.95;61.49;-1259.53;4968839;28;46358;-88
2023/01/24 21:27:14;;;;;;;;;35.33;31.67;;;;;8.08;61.54;-1259.16;4948963;28;45401;-88
2023/01/24 21:29:39;;;;;;;;;38.67;33.00;;;;;8.12;61.51;-1259.06;4957728;28;45365;-88
2023/01/24 21:32:05;;;;;;;;;41.00;32.67;;;;;8.32;61.23;-1258.50;4957953;28;45546;-88
2023/01/24 21:34:30;;;;;;;;;33.33;23.67;;;;;7.94;61.79;-1259.56;4974222;28;46053;-88
2023/01/24 21:36:56;;;;;;;;;42.25;31.75;;;;;7.94;61.07;-1259.56;4973587;28;45854;-88
2023/01/24 21:39:24;;;;;;;;;36.33;31.33;;;;;8.12;61.15;-927.91;4974400;28;45762;-88
2023/01/24 21:41:56;;;;;;;;;37.00;30.67;;;;;7.92;61.37;-1259.63;4972149;28;45595;-86
2023/01/24 21:44:30;;;;;;;;;44.75;33.00;;;;;8.31;61.49;-1258.50;4953242;28;46471;-85
2023/01/24 21:46:55;;;;;;;;;33.25;31.75;;;;;8.02;61.73;-1259.31;4974211;28;45467;-86
2023/01/24 21:49:21;;;;;;;;;32.67;31.00;;;;;8.31;62.04;-1258.50;4974811;28;45361;-86
2023/01/24 21:51:46;;;;;;;;;37.33;28.67;;;;;8.31;61.47;-1258.50;4957894;28;45440;-86
2023/01/24 21:54:16;;;;;;;;;42.25;33.00;;;;;7.99;61.89;-1259.41;4973771;28;45639;-86
2023/01/24 21:59:33;;;;;;;;;37.50;32.50;;;;;8.29;62.13;-1258.59;4974917;28;45752;-86
2023/01/24 22:02:14;;;;;;;;;42.25;34.00;;;;;8.25;61.65;-1258.69;4974250;28;45520;-86
2023/01/24 22:04:43;;;;;;;;;38.25;34.25;;;;;8.23;61.81;-1258.72;4969236;28;46530;-86
2023/01/24 22:07:10;;;;;;;;;41.75;33.00;;;;;8.14;62.18;-1259.00;4969504;28;45431;-86
2023/01/24 22:09:36;;;;;;;;;34.00;30.00;;;;;8.24;61.75;-1258.69;4956386;28;45416;-86
2023/01/24 22:12:02;;;;;;;;;35.75;32.75;;;;;7.80;62.14;-1590.91;4974751;28;45602;-86
2023/01/24 22:14:29;;;;;;;;;40.25;33.50;;;;;8.24;61.83;-1258.72;4969135;28;47530;-86
2023/01/24 22:17:00;;;;;;;;;36.50;33.00;;;;;8.21;61.68;-1258.78;4974233;28;45655;-85
2023/01/24 22:19:50;;;;;;;;;41.50;33.00;;;;;8.19;61.60;-1258.84;4975488;28;45828;-86
2023/01/24 22:22:37;;;;;;;;;37.00;33.00;;;;;8.03;61.92;-1259.31;4977497;28;45477;-86
2023/01/24 22:25:33;;;;;;;;;38.75;33.00;;;;;7.88;62.24;-1259.75;4971424;28;47515;-87
2023/01/24 22:27:59;;;;;;;;;40.00;32.75;;;;;8.18;62.23;-1258.88;4959414;28;45976;-86
2023/01/24 22:30:25;;;;;;;;;38.25;32.00;;;;;7.91;62.03;-1259.63;4944658;28;45519;-85
2023/01/24 22:32:54;;;;;;;;;41.75;35.00;;;;;8.07;62.32;-1259.19;4980811;28;45965;-86
2023/01/24 22:35:22;;;;;;;;;34.00;28.50;;;;;7.77;62.19;-1260.03;4959996;28;46402;-86
2023/01/24 22:37:55;;;;;;;;;36.25;32.75;;;;;8.17;62.40;-1258.91;4953769;28;46011;-86
2023/01/24 22:40:21;;;;;;;;;43.00;32.75;;;;;8.17;62.00;-1258.91;4974750;28;45481;-86
2023/01/24 22:42:49;;;;;;;;;36.75;34.25;;;;;7.78;62.39;-1260.00;4960509;28;45953;-88
2023/01/24 22:45:14;;;;;;;;;38.00;28.50;;;;;7.99;62.09;-1259.44;4977585;28;45556;-87
2023/01/24 22:47:39;;;;;;;;;42.50;34.50;;;;;7.88;62.21;-1259.72;4975940;28;45483;-87
2023/01/24 22:50:05;;;;;;;;;31.00;28.00;;;;;7.97;62.26;-1590.50;4977420;28;45373;-87
2023/01/24 22:52:33;;;;;;;;;41.00;34.67;;;;;7.89;62.41;-1259.72;4978235;28;45568;-86
2023/01/24 22:54:58;;;;;;;;;35.00;32.00;;;;;7.56;62.00;-1591.44;4960320;28;46256;-86
2023/01/24 22:57:23;;;;;;;;;37.33;30.00;;;;;7.85;62.09;-1259.81;4977605;28;45431;-86
2023/01/24 22:59:49;;;;;;;;;34.00;30.00;;;;;8.16;62.13;-1258.94;4976590;28;45612;-88
2023/01/24 23:02:14;;;;;;;;;42.75;35.25;;;;;8.15;62.54;-1590.09;4977906;28;45673;-90
2023/01/24 23:04:40;;;;;;;;;41.00;34.00;;;;;8.23;62.54;-1921.06;4960978;28;47112;-90
2023/01/24 23:07:05;;;;;;;;;42.00;33.75;;;;;8.36;62.22;-2252.03;4960724;28;45471;-90
2023/01/24 23:09:31;;;;;;;;;36.67;31.67;;;;;8.47;61.59;-2251.88;4961176;28;45423;-86
2023/01/24 23:11:56;;;;;;;;;44.00;33.75;;;;;8.49;61.79;-2251.88;4977537;28;46027;-87
2023/01/24 23:17:11;;;;;;;;;32.33;28.00;;;;;7.92;61.35;-1921.63;4973024;28;45465;-87
2023/01/24 23:22:28;;;;;;;;;39.75;35.50;;;;;7.97;61.61;-1590.53;4977051;28;45752;-86
2023/01/24 23:24:54;;;;;;;;;39.00;32.75;;;;;8.35;61.87;-1589.66;4976695;28;45752;-89
2023/01/24 23:27:26;;;;;;;;;40.00;31.00;;;;;7.48;61.66;-1591.63;4976553;28;45546;-88
2023/01/24 23:30:10;;;;;;;;;37.25;31.75;;;;;8.27;62.05;-1589.81;4976064;28;45456;-88
2023/01/24 23:33:14;;;;;;;;;41.50;32.25;;;;;8.24;61.88;-1589.91;4976806;28;45551;-88
2023/01/24 23:35:40;;;;;;;;;33.50;31.25;;;;;8.05;62.26;-1590.34;4942285;28;47623;-88
2023/01/24 23:38:05;;;;;;;;;27.75;24.75;;;;;8.03;62.27;-1590.38;4976613;28;46036;-88
2023/01/24 23:40:30;;;;;;;;;43.75;34.50;;;;;7.92;61.85;-1259.63;4976607;28;45554;-88
2023/01/24 23:42:56;;;;;;;;;38.75;32.50;;;;;7.83;62.15;-1259.84;4977683;28;45397;-87
2023/01/24 23:45:21;;;;;;;;;41.25;34.50;;;;;6.94;61.88;-1592.84;4976748;28;45443;-88
2023/01/24 23:47:46;;;;;;;;;38.25;34.25;;;;;7.56;62.37;-1591.44;4977072;28;45468;-89
2023/01/24 23:50:12;;;;;;;;;35.25;31.00;;;;;7.53;62.19;-1591.53;4977231;28;45502;-89
2023/01/24 23:52:38;;;;;;;;;32.50;27.50;;;;;7.58;62.43;-1260.56;4977271;28;45440;-88
2023/01/24 23:55:04;;;;;;;;;35.00;31.50;;;;;7.88;62.44;-1590.72;4976742;28;48638;-88
2023/01/24 23:57:29;;;;;;;;;39.25;35.00;;;;;7.35;62.09;-1261.22;4976541;28;45423;-88
2023/01/24 23:59:55;;;;;;;;;36.25;34.00;;;;;6.97;62.17;-1262.25;4976784;28;45463;-88
